Terminal Aerodrome Forecast
Issued by NWS Blacksburg, VA

Current Version | Previous Version | Graphics & Text | Print | Product List | Glossary On
Versions: 1 2 3 4 5 6 7 8 9 10 11 12 13 14 15 16 17 18 19 20 21 22 23 24 25 26 27 28 29 30 31 32 33 34
803
FTUS41 KRNK 201129
TAFBLF
TAF
KBLF 201129Z 2012/2112 15008KT P6SM -RA SCT025 OVC060 WS020/19035KT
      TEMPO 2012/2014 3SM RA OVC015
     FM201400 19005KT 5SM -RA BR OVC015
     FM201800 24006KT P6SM SCT030 OVC040=

USA.gov is the U.S. government's official web portal to all federal, state and local government web resources and services.